Time;durP1;ratioP1;P1;durP2;ratioP2;P2;SDS_P1;SDS_P2;PMS_P1;PMS_P2;Temp;Humidity;BMP_temperature;BMP_pressure;BME280_temperature;BME280_humidity;BME280_pressure;Samples;Min_cycle;Max_cycle;Signal;HPM_P1;HPM_P2
2022/10/30 00:00:43;;;;;;;7.03;5.17;;;16.30;99.90;;;;;;5054275;28;20453;-64
2022/10/30 00:03:12;;;;;;;10.03;5.40;;;16.40;99.90;;;;;;5059216;28;20795;-65
2022/10/30 00:05:42;;;;;;;9.77;5.37;;;16.40;99.90;;;;;;5055321;28;20444;-65
2022/10/30 00:08:10;;;;;;;8.33;5.60;;;16.40;99.90;;;;;;5055546;28;20467;-64
2022/10/30 00:10:36;;;;;;;16.27;7.13;;;16.50;99.90;;;;;;5055464;28;20813;-65
2022/10/30 00:13:03;;;;;;;10.97;6.40;;;16.40;99.90;;;;;;5054510;28;20447;-64
2022/10/30 00:15:30;;;;;;;12.07;5.63;;;16.40;99.90;;;;;;5056983;28;20479;-65
2022/10/30 00:17:56;;;;;;;11.80;5.10;;;16.40;99.90;;;;;;5057941;28;20478;-64
2022/10/30 00:20:24;;;;;;;11.30;5.93;;;16.40;99.90;;;;;;5057174;28;20458;-65
2022/10/30 00:22:51;;;;;;;9.33;6.33;;;16.30;99.90;;;;;;5056419;28;20454;-64
2022/10/30 00:25:18;;;;;;;7.50;5.60;;;16.30;99.90;;;;;;5056952;28;20438;-64
2022/10/30 00:27:45;;;;;;;9.50;5.83;;;16.30;99.90;;;;;;5059967;28;20463;-65
2022/10/30 00:30:14;;;;;;;9.30;6.10;;;16.30;99.90;;;;;;5060798;28;20946;-64
2022/10/30 00:32:41;;;;;;;8.87;6.00;;;16.30;99.90;;;;;;5057137;28;20542;-63
2022/10/30 00:35:09;;;;;;;8.87;5.33;;;16.30;99.90;;;;;;5057036;28;20475;-65
2022/10/30 00:37:37;;;;;;;8.80;5.60;;;16.30;99.90;;;;;;5057370;28;20468;-64
2022/10/30 00:40:05;;;;;;;11.33;5.53;;;16.30;99.90;;;;;;5059173;28;20453;-65
2022/10/30 00:42:32;;;;;;;8.37;6.20;;;16.30;99.90;;;;;;5060631;28;20457;-65
2022/10/30 00:44:59;;;;;;;10.23;5.40;;;16.30;99.90;;;;;;5060688;28;20455;-64
2022/10/30 00:47:29;;;;;;;8.00;5.17;;;16.30;99.90;;;;;;5062504;28;20986;-64
2022/10/30 00:49:59;;;;;;;13.97;6.10;;;16.30;99.90;;;;;;5063129;28;20438;-64
2022/10/30 00:52:29;;;;;;;7.33;5.77;;;16.30;99.90;;;;;;5062702;28;20446;-65
2022/10/30 00:54:59;;;;;;;8.03;5.90;;;16.20;99.90;;;;;;5062420;28;20481;-65
2022/10/30 00:57:26;;;;;;;11.53;5.67;;;16.20;99.90;;;;;;5061081;28;20464;-65
2022/10/30 00:59:53;;;;;;;6.80;5.00;;;16.20;99.90;;;;;;5063172;28;20443;-65
2022/10/30 01:02:21;;;;;;;9.73;5.37;;;16.20;99.90;;;;;;5065861;28;20447;-65
2022/10/30 01:04:50;;;;;;;8.30;5.00;;;16.20;99.90;;;;;;5065977;28;20456;-64
2022/10/30 01:07:18;;;;;;;9.30;5.30;;;16.20;99.90;;;;;;5066568;28;20474;-64
2022/10/30 01:09:46;;;;;;;8.63;6.03;;;16.20;99.90;;;;;;5056515;28;20467;-64
2022/10/30 01:12:15;;;;;;;9.20;5.13;;;16.20;99.90;;;;;;5056490;28;20443;-65
2022/10/30 01:14:45;;;;;;;11.30;5.80;;;16.20;99.90;;;;;;5055979;28;20818;-64
2022/10/30 01:17:34;;;;;;;7.57;5.17;;;16.20;99.90;;;;;;5056493;28;20462;-65
2022/10/30 01:20:11;;;;;;;15.47;5.80;;;16.10;99.90;;;;;;5062000;28;20435;-66
2022/10/30 01:22:50;;;;;;;11.73;5.67;;;16.10;99.90;;;;;;5064508;28;20426;-65
2022/10/30 01:25:31;;;;;;;8.23;5.10;;;16.10;99.90;;;;;;5057947;28;20427;-63
2022/10/30 01:28:09;;;;;;;12.87;5.90;;;16.10;99.90;;;;;;5059715;28;20478;-64
2022/10/30 01:30:52;;;;;;;6.67;4.53;;;16.00;99.90;;;;;;5065215;28;20441;-65
2022/10/30 01:33:30;;;;;;;9.20;5.30;;;16.00;99.90;;;;;;5072433;28;20435;-64
2022/10/30 01:36:05;;;;;;;12.03;5.73;;;16.00;99.90;;;;;;5073059;28;20475;-64
2022/10/30 01:38:35;;;;;;;7.03;4.90;;;16.00;99.90;;;;;;5071928;28;20530;-65
2022/10/30 01:41:02;;;;;;;7.77;5.30;;;16.00;99.90;;;;;;5066790;28;20447;-65
2022/10/30 01:43:32;;;;;;;11.03;4.70;;;16.00;99.90;;;;;;5070198;28;20443;-65
2022/10/30 01:46:21;;;;;;;8.00;5.63;;;16.00;99.90;;;;;;5070628;28;20443;-71
2022/10/30 01:49:06;;;;;;;7.80;5.40;;;16.10;99.90;;;;;;5059548;28;20467;-64
2022/10/30 01:51:51;;;;;;;11.53;5.20;;;16.10;99.90;;;;;;5056662;28;20443;-65
2022/10/30 01:54:28;;;;;;;9.33;5.57;;;16.10;99.90;;;;;;5061606;28;20432;-65
2022/10/30 01:57:03;;;;;;;6.50;4.97;;;16.00;99.90;;;;;;5067978;28;20461;-64
2022/10/30 01:59:36;;;;;;;10.33;6.00;;;16.00;99.90;;;;;;5065210;28;20430;-64
2022/10/30 02:02:03;;;;;;;6.50;5.47;;;16.00;99.90;;;;;;5056162;28;20441;-64
2022/10/30 02:04:31;;;;;;;9.13;5.27;;;16.00;99.90;;;;;;5055456;28;20447;-64
2022/10/30 02:06:58;;;;;;;13.70;4.83;;;16.00;99.90;;;;;;5055162;28;20443;-65
2022/10/30 02:09:25;;;;;;;9.60;5.87;;;16.00;99.90;;;;;;5054847;28;20457;-65
2022/10/30 02:11:53;;;;;;;13.00;5.20;;;16.00;99.90;;;;;;5055186;28;20451;-65
2022/10/30 02:14:26;;;;;;;6.83;5.63;;;16.00;99.90;;;;;;5055277;28;20438;-65
2022/10/30 02:16:58;;;;;;;6.90;5.93;;;16.00;99.90;;;;;;5054751;28;20942;-66
2022/10/30 02:19:25;;;;;;;10.30;5.07;;;15.90;99.90;;;;;;5054892;28;20433;-66
2022/10/30 02:21:53;;;;;;;8.03;5.67;;;15.90;99.90;;;;;;5055154;28;20443;-66
2022/10/30 02:24:20;;;;;;;8.20;4.90;;;15.90;99.90;;;;;;5055049;28;20474;-65
2022/10/30 02:26:47;;;;;;;7.33;4.90;;;15.80;99.90;;;;;;5054941;28;20473;-66
2022/10/30 02:29:13;;;;;;;12.77;6.17;;;15.80;99.90;;;;;;5054996;28;20451;-64
2022/10/30 02:31:40;;;;;;;5.83;4.80;;;15.80;99.90;;;;;;5054902;28;20451;-63
2022/10/30 02:34:07;;;;;;;7.73;5.10;;;15.70;99.90;;;;;;5054560;28;20934;-64
2022/10/30 02:36:34;;;;;;;8.50;5.73;;;15.70;99.90;;;;;;5054777;28;20493;-65
2022/10/30 02:39:02;;;;;;;8.20;4.97;;;15.70;99.90;;;;;;5054747;28;20477;-66
2022/10/30 02:41:29;;;;;;;10.13;5.07;;;15.70;99.90;;;;;;5054464;28;20799;-65
2022/10/30 02:43:56;;;;;;;8.73;5.50;;;15.60;99.90;;;;;;5061585;28;20454;-65
2022/10/30 02:46:22;;;;;;;8.47;5.43;;;15.60;99.90;;;;;;5056954;28;20439;-65
2022/10/30 02:48:49;;;;;;;13.90;6.00;;;15.60;99.90;;;;;;5053641;28;20470;-66
2022/10/30 02:51:16;;;;;;;6.30;4.37;;;15.50;99.90;;;;;;5054373;28;20461;-64
2022/10/30 02:53:43;;;;;;;11.53;5.10;;;15.50;99.90;;;;;;5055276;28;20818;-65
2022/10/30 02:56:12;;;;;;;7.87;5.33;;;15.50;99.90;;;;;;5054081;28;20858;-65
2022/10/30 02:58:39;;;;;;;9.40;6.10;;;15.50;99.90;;;;;;5054405;28;20843;-65
2022/10/30 03:01:07;;;;;;;9.80;5.80;;;15.50;99.90;;;;;;5054076;28;20447;-64
2022/10/30 03:03:34;;;;;;;12.80;5.70;;;15.50;99.90;;;;;;5053964;28;20449;-64
2022/10/30 03:06:02;;;;;;;9.17;5.57;;;15.40;99.90;;;;;;5053777;28;20442;-65
2022/10/30 03:08:29;;;;;;;7.03;5.33;;;15.40;99.90;;;;;;5053968;28;20482;-65
2022/10/30 03:11:03;;;;;;;12.73;5.90;;;15.40;99.90;;;;;;5054313;28;20546;-65
2022/10/30 03:13:33;;;;;;;6.93;4.77;;;15.40;99.90;;;;;;5053538;28;20969;-65
2022/10/30 03:16:01;;;;;;;6.40;5.47;;;15.40;99.90;;;;;;5053702;28;20483;-66
2022/10/30 03:18:28;;;;;;;9.93;5.40;;;15.40;99.90;;;;;;5053973;28;20539;-64
2022/10/30 03:20:59;;;;;;;6.20;4.80;;;15.40;99.90;;;;;;5056449;28;20447;-64
2022/10/30 03:23:26;;;;;;;8.20;5.90;;;15.40;99.90;;;;;;5059304;28;20446;-64
2022/10/30 03:25:54;;;;;;;10.73;5.70;;;15.30;99.90;;;;;;5057659;28;20434;-64
2022/10/30 03:28:21;;;;;;;8.10;5.47;;;15.30;99.90;;;;;;5059245;28;20990;-64
2022/10/30 03:30:50;;;;;;;10.67;5.63;;;15.30;99.90;;;;;;5056669;28;20449;-65
2022/10/30 03:33:17;;;;;;;8.20;4.77;;;15.20;99.90;;;;;;5054135;28;20442;-64
2022/10/30 03:35:45;;;;;;;9.77;6.00;;;15.20;99.90;;;;;;5053966;28;20597;-66
2022/10/30 03:38:11;;;;;;;13.07;5.57;;;15.20;99.90;;;;;;5054198;28;20473;-64
2022/10/30 03:40:38;;;;;;;10.80;5.97;;;15.20;99.90;;;;;;5054298;28;20963;-65
2022/10/30 03:43:05;;;;;;;10.33;5.87;;;15.20;99.90;;;;;;5053783;28;20446;-66
2022/10/30 03:45:33;;;;;;;9.27;5.27;;;15.20;99.90;;;;;;5053827;28;20453;-66
2022/10/30 03:48:01;;;;;;;7.77;5.00;;;15.20;99.90;;;;;;5053614;28;20880;-65
2022/10/30 03:50:28;;;;;;;14.57;5.53;;;15.20;99.90;;;;;;5053515;28;20933;-65
2022/10/30 03:52:55;;;;;;;9.40;5.40;;;15.20;99.90;;;;;;5053514;28;20451;-65
2022/10/30 03:55:22;;;;;;;11.07;5.70;;;15.20;99.90;;;;;;5053580;28;20823;-65
2022/10/30 03:57:49;;;;;;;8.83;4.80;;;15.20;99.90;;;;;;5053553;28;20507;-65
2022/10/30 04:00:17;;;;;;;7.47;5.10;;;15.20;99.90;;;;;;5053041;28;20445;-65
2022/10/30 04:02:46;;;;;;;7.30;4.60;;;15.10;99.90;;;;;;5053586;28;20446;-64
2022/10/30 04:05:15;;;;;;;8.80;4.80;;;15.10;99.90;;;;;;5053529;28;20451;-65
2022/10/30 04:10:28;;;;;;;10.80;5.83;;;;;;;;;;5091952;28;20555;-65
2022/10/30 04:13:00;;;;;;;9.13;5.50;;;;;;;;;;5093064;28;20444;-66
2022/10/30 04:15:27;;;;;;;8.63;4.93;;;;;;;;;;5094548;28;20819;-65
2022/10/30 04:17:54;;;;;;;9.63;7.10;;;;;;;;;;5092961;28;20472;-64
2022/10/30 04:20:22;;;;;;;11.83;6.33;;;;;;;;;;5091040;28;20812;-65
2022/10/30 04:22:49;;;;;;;11.60;5.60;;;;;;;;;;5110849;22;20941;-64
2022/10/30 04:25:16;;;;;;;10.47;5.50;;;;;;;;;;5070702;28;20437;-64
2022/10/30 04:27:45;;;;;;;9.00;5.90;;;;;;;;;;5071865;28;20456;-64
2022/10/30 04:30:13;;;;;;;9.03;5.57;;;;;;;;;;5071904;28;20473;-64
2022/10/30 04:32:46;;;;;;;10.03;5.67;;;;;;;;;;5071576;28;20978;-64
2022/10/30 04:35:13;;;;;;;12.20;5.93;;;;;;;;;;5070712;28;20731;-65
2022/10/30 04:37:40;;;;;;;7.50;4.70;;;;;;;;;;5071258;28;20462;-64
2022/10/30 04:40:08;;;;;;;9.53;5.57;;;;;;;;;;5072079;28;20442;-65
2022/10/30 04:42:35;;;;;;;12.33;5.47;;;;;;;;;;5071783;28;20453;-65
2022/10/30 04:45:03;;;;;;;8.97;6.03;;;;;;;;;;5072770;28;20925;-64
2022/10/30 04:47:30;;;;;;;9.30;6.40;;;;;;;;;;5070866;28;20445;-65
2022/10/30 04:49:57;;;;;;;7.43;5.50;;;;;;;;;;5071738;28;20483;-65
2022/10/30 04:52:24;;;;;;;14.20;6.30;;;;;;;;;;5071067;28;20456;-64
2022/10/30 04:54:51;;;;;;;9.30;5.60;;;;;;;;;;5069598;28;20445;-65
2022/10/30 04:57:18;;;;;;;8.80;5.47;;;;;;;;;;5070675;28;20451;-64
2022/10/30 04:59:45;;;;;;;7.23;5.73;;;;;;;;;;5069672;28;20449;-65
2022/10/30 05:02:14;;;;;;;10.23;5.97;;;;;;;;;;5069514;28;20453;-64
2022/10/30 05:04:41;;;;;;;12.87;5.30;;;;;;;;;;5071592;28;20501;-65
2022/10/30 05:07:08;;;;;;;10.17;5.87;;;;;;;;;;5072116;28;20447;-66
2022/10/30 05:09:35;;;;;;;6.63;5.50;;;;;;;;;;5071202;28;20476;-65
2022/10/30 05:12:02;;;;;;;10.87;5.77;;;;;;;;;;5070761;28;20449;-65
2022/10/30 05:14:30;;;;;;;8.43;5.43;;;;;;;;;;5069716;28;20492;-65
2022/10/30 05:16:57;;;;;;;8.10;6.13;;;;;;;;;;5070087;28;20467;-65
2022/10/30 05:19:26;;;;;;;7.97;5.67;;;;;;;;;;5070848;28;20442;-65
2022/10/30 05:21:53;;;;;;;9.13;5.40;;;;;;;;;;5056649;28;20953;-65
2022/10/30 05:24:20;;;;;;;7.27;4.67;;;;;;;;;;5056690;28;20481;-65
2022/10/30 05:26:47;;;;;;;10.70;5.87;;;;;;;;;;5055982;28;20446;-65
2022/10/30 05:29:14;;;;;;;8.70;5.10;;;;;;;;;;5055847;28;20481;-65
2022/10/30 05:31:41;;;;;;;9.67;5.83;;;;;;;;;;5055614;28;20455;-65
2022/10/30 05:34:08;;;;;;;9.27;5.27;;;;;;;;;;5055651;28;20465;-66
2022/10/30 05:36:37;;;;;;;8.63;5.30;;;;;;;;;;5055532;28;20451;-65
2022/10/30 05:39:04;;;;;;;7.90;5.20;;;;;;;;;;5056486;28;20465;-66
2022/10/30 05:41:31;;;;;;;9.57;5.90;;;;;;;;;;5056581;28;20502;-65
2022/10/30 05:43:58;;;;;;;8.43;5.17;;;;;;;;;;5056659;28;20998;-65
2022/10/30 05:46:25;;;;;;;9.93;5.50;;;;;;;;;;5056431;28;20449;-65
2022/10/30 05:48:52;;;;;;;7.40;5.60;;;;;;;;;;5056208;28;20481;-64
2022/10/30 05:51:19;;;;;;;8.83;4.90;;;;;;;;;;5057198;28;20445;-65
2022/10/30 05:53:49;;;;;;;8.97;5.47;;;;;;;;;;5057029;28;20473;-65
2022/10/30 05:56:16;;;;;;;8.47;5.20;;;;;;;;;;5056835;28;20457;-65
2022/10/30 05:58:43;;;;;;;10.70;5.40;;;;;;;;;;5056711;28;20818;-64
2022/10/30 06:01:11;;;;;;;8.27;5.83;;;;;;;;;;5057636;28;20446;-65
2022/10/30 06:03:38;;;;;;;16.93;6.00;;;;;;;;;;5057100;28;20467;-64
2022/10/30 06:06:05;;;;;;;12.53;5.57;;;;;;;;;;5057024;28;20950;-64
2022/10/30 06:08:32;;;;;;;11.03;6.17;;;;;;;;;;5055644;28;20453;-64
2022/10/30 06:11:00;;;;;;;9.53;6.03;;;;;;;;;;5055568;28;20482;-64
2022/10/30 06:13:27;;;;;;;10.27;5.87;;;;;;;;;;5055806;28;20477;-64
2022/10/30 06:15:55;;;;;;;9.20;5.50;;;;;;;;;;5055321;28;20455;-64
2022/10/30 06:18:22;;;;;;;9.63;5.63;;;;;;;;;;5055954;28;20790;-64
2022/10/30 06:20:49;;;;;;;6.57;5.33;;;;;;;;;;5055198;28;20468;-67
2022/10/30 06:23:16;;;;;;;11.60;5.67;;;;;;;;;;5054703;28;20485;-65
2022/10/30 06:25:43;;;;;;;10.10;6.20;;;;;;;;;;5055443;28;20958;-64
2022/10/30 06:28:13;;;;;;;6.37;4.60;;;;;;;;;;5055226;28;20451;-65
2022/10/30 06:30:40;;;;;;;10.23;5.93;;;;;;;;;;5054869;28;20485;-65
2022/10/30 06:33:08;;;;;;;17.27;5.90;;;;;;;;;;5053987;28;20557;-65
2022/10/30 06:35:35;;;;;;;12.83;5.73;;;;;;;;;;5055138;28;20442;-66
2022/10/30 06:38:03;;;;;;;10.10;5.53;;;;;;;;;;5054098;28;20449;-64
2022/10/30 06:40:30;;;;;;;13.27;6.07;;;;;;;;;;5053857;28;21022;-65
2022/10/30 06:42:58;;;;;;;11.07;5.73;;;;;;;;;;5054391;28;20974;-65
2022/10/30 06:45:26;;;;;;;8.93;6.50;;;;;;;;;;5055161;28;20444;-64
2022/10/30 06:47:53;;;;;;;8.93;5.50;;;;;;;;;;5055473;28;20449;-65
2022/10/30 06:50:22;;;;;;;9.63;5.70;;;;;;;;;;5055440;28;20474;-65
2022/10/30 06:52:50;;;;;;;14.03;6.50;;;;;;;;;;5054808;28;20470;-64
2022/10/30 06:55:17;;;;;;;13.83;6.53;;;;;;;;;;5054430;28;20525;-65
2022/10/30 06:57:44;;;;;;;9.30;5.10;;;;;;;;;;5054787;28;20442;-65
2022/10/30 07:00:12;;;;;;;12.47;5.30;;;;;;;;;;5055809;28;20449;-66
2022/10/30 07:02:41;;;;;;;10.83;6.10;;;;;;;;;;5056387;28;20859;-65
2022/10/30 07:05:08;;;;;;;7.97;5.23;;;;;;;;;;5055105;28;20450;-65
2022/10/30 07:07:35;;;;;;;11.37;5.90;;;;;;;;;;5054747;28;20515;-64
2022/10/30 07:10:02;;;;;;;8.80;5.63;;;;;;;;;;5055623;28;20469;-66
2022/10/30 07:12:29;;;;;;;8.20;5.40;;;;;;;;;;5055333;28;20447;-65
2022/10/30 07:14:56;;;;;;;9.40;5.70;;;;;;;;;;5055706;28;20451;-64
2022/10/30 07:17:23;;;;;;;10.23;5.33;;;;;;;;;;5054239;28;20458;-66
2022/10/30 07:19:52;;;;;;;6.93;5.30;;;;;;;;;;5054280;28;20447;-65
2022/10/30 07:22:19;;;;;;;7.40;5.77;;;;;;;;;;5055273;28;20447;-66
2022/10/30 07:24:46;;;;;;;12.13;5.10;;;;;;;;;;5053768;28;20477;-64
2022/10/30 07:27:13;;;;;;;9.10;5.73;;;;;;;;;;5055952;28;20454;-64
2022/10/30 07:29:40;;;;;;;9.30;5.57;;;;;;;;;;5056509;28;20483;-65
2022/10/30 07:32:07;;;;;;;11.73;5.43;;;;;;;;;;5056573;28;20454;-64
2022/10/30 07:34:34;;;;;;;11.33;5.63;;;;;;;;;;5056873;28;20472;-65
2022/10/30 07:37:03;;;;;;;10.40;5.20;;;;;;;;;;5056892;28;20443;-64
2022/10/30 07:39:30;;;;;;;8.83;5.80;;;;;;;;;;5054082;28;20442;-64
2022/10/30 07:41:57;;;;;;;10.07;5.00;;;;;;;;;;5054280;28;20792;-64
2022/10/30 07:44:24;;;;;;;10.93;6.10;;;;;;;;;;5054023;28;20471;-64
2022/10/30 07:46:51;;;;;;;8.00;5.70;;;;;;;;;;5055066;28;20458;-64
2022/10/30 07:49:18;;;;;;;7.60;5.20;;;;;;;;;;5054967;28;20799;-64
2022/10/30 07:51:45;;;;;;;8.70;5.80;;;;;;;;;;5053940;28;20938;-65
2022/10/30 07:54:14;;;;;;;9.50;5.60;;;;;;;;;;5054418;28;20476;-64
2022/10/30 07:56:41;;;;;;;12.43;6.40;;;;;;;;;;5054073;28;20538;-64
2022/10/30 07:59:08;;;;;;;14.50;5.43;;;;;;;;;;5054021;28;20477;-64
2022/10/30 08:01:35;;;;;;;7.80;5.43;;;;;;;;;;5053881;28;20448;-65
2022/10/30 08:04:03;;;;;;;9.30;5.70;;;;;;;;;;5055052;28;20462;-65
2022/10/30 08:06:30;;;;;;;9.87;5.33;;;;;;;;;;5055329;28;20559;-65
2022/10/30 08:08:57;;;;;;;10.60;5.33;;;;;;;;;;5054690;28;20459;-65
2022/10/30 08:11:25;;;;;;;11.07;5.57;;;;;;;;;;5054662;28;20853;-66
2022/10/30 08:13:52;;;;;;;7.23;4.77;;;;;;;;;;5054200;28;20471;-66
2022/10/30 08:16:20;;;;;;;10.33;5.50;;;;;;;;;;5055687;28;20545;-66
2022/10/30 08:18:47;;;;;;;8.27;5.57;;;;;;;;;;5054530;28;20895;-65
2022/10/30 08:21:14;;;;;;;7.33;5.10;;;;;;;;;;5054889;28;20435;-65
2022/10/30 08:23:41;;;;;;;8.60;5.47;;;;;;;;;;5054513;28;20901;-66
2022/10/30 08:26:08;;;;;;;11.80;6.03;;;;;;;;;;5055125;28;20450;-66
2022/10/30 08:28:37;;;;;;;7.50;5.40;;;;;;;;;;5054585;28;20437;-64
2022/10/30 08:31:05;;;;;;;11.57;4.83;;;;;;;;;;5054804;28;20484;-65
2022/10/30 08:33:32;;;;;;;8.07;5.27;;;;;;;;;;5055841;28;20870;-65
2022/10/30 08:36:00;;;;;;;8.10;5.20;;;;;;;;;;5054394;28;20511;-65
2022/10/30 08:38:28;;;;;;;8.70;5.27;;;;;;;;;;5055030;28;20515;-66
2022/10/30 08:40:56;;;;;;;8.63;5.40;;;;;;;;;;5056435;28;20529;-69
2022/10/30 08:43:24;;;;;;;9.07;4.60;;;;;;;;;;5055607;28;20520;-66
2022/10/30 08:45:52;;;;;;;7.10;4.87;;;;;;;;;;5055646;28;20572;-66
2022/10/30 08:48:19;;;;;;;13.70;5.13;;;;;;;;;;5055009;28;20483;-64
2022/10/30 08:50:46;;;;;;;7.27;4.90;;;;;;;;;;5054910;28;20846;-64
2022/10/30 08:53:14;;;;;;;9.50;5.10;;;;;;;;;;5055274;28;20469;-67
2022/10/30 08:55:42;;;;;;;7.37;5.17;;;;;;;;;;5056451;28;20458;-66
2022/10/30 08:58:09;;;;;;;6.03;4.80;;;;;;;;;;5058359;28;20441;-67
2022/10/30 09:00:36;;;;;;;10.53;5.57;;;;;;;;;;5058695;28;20944;-65
2022/10/30 09:03:05;;;;;;;6.67;5.00;;;;;;;;;;5057654;28;20471;-65
2022/10/30 09:05:32;;;;;;;10.87;5.70;;;;;;;;;;5059329;28;20786;-65
2022/10/30 09:08:00;;;;;;;10.03;5.13;;;;;;;;;;5059941;28;20450;-65
2022/10/30 09:10:27;;;;;;;10.20;5.00;;;;;;;;;;5060002;28;20477;-65
2022/10/30 09:12:55;;;;;;;9.80;5.33;;;;;;;;;;5060748;28;20469;-66
2022/10/30 09:15:22;;;;;;;7.30;4.20;;;;;;;;;;5060554;28;20454;-66
2022/10/30 09:17:49;;;;;;;9.93;5.30;;;;;;;;;;5060965;28;20468;-65
2022/10/30 09:20:17;;;;;;;6.10;4.20;;;;;;;;;;5061322;28;20448;-65
2022/10/30 09:22:44;;;;;;;9.77;4.50;;;;;;;;;;5061191;28;22375;-66
2022/10/30 09:25:12;;;;;;;9.27;4.90;;;;;;;;;;5058903;28;20477;-67
2022/10/30 09:27:39;;;;;;;8.10;5.40;;;;;;;;;;5057998;28;20536;-65
2022/10/30 09:30:07;;;;;;;8.80;4.63;;;;;;;;;;5058142;28;20481;-66
2022/10/30 09:32:34;;;;;;;10.13;5.10;;;;;;;;;;5058796;28;20477;-67
2022/10/30 09:35:01;;;;;;;8.30;5.60;;;;;;;;;;5057751;28;21005;-66
2022/10/30 09:37:30;;;;;;;7.17;4.03;;;;;;;;;;5058731;28;20452;-65
2022/10/30 09:39:57;;;;;;;6.87;4.33;;;;;;;;;;5058760;28;20457;-66
2022/10/30 09:42:36;;;;;;;17.90;4.90;;;;;;;;;;5058149;28;20456;-66
2022/10/30 09:45:10;;;;;;;8.00;4.93;;;;;;;;;;5057176;28;20452;-65
2022/10/30 09:47:43;;;;;;;10.77;5.43;;;;;;;;;;5057862;28;20795;-67
2022/10/30 09:50:24;;;;;;;8.23;4.90;;;;;;;;;;5057507;28;20546;-66
2022/10/30 09:52:58;;;;;;;10.30;4.90;;;;;;;;;;5058047;28;20845;-67
2022/10/30 09:55:32;;;;;;;9.87;4.90;;;;;;;;;;5058239;28;20454;-65
2022/10/30 09:58:04;;;;;;;11.27;4.87;;;;;;;;;;5058190;28;20440;-67
2022/10/30 10:00:33;;;;;;;10.83;5.17;;;;;;;;;;5056642;28;20471;-66
2022/10/30 10:03:06;;;;;;;8.70;4.03;;;;;;;;;;5058197;28;20560;-67
2022/10/30 10:05:39;;;;;;;8.17;4.57;;;;;;;;;;5047464;28;20467;-66
2022/10/30 10:08:09;;;;;;;9.60;5.00;;;;;;;;;;5037415;28;20949;-67
2022/10/30 10:10:39;;;;;;;10.67;5.77;;;;;;;;;;5056539;28;20493;-66
2022/10/30 10:13:08;;;;;;;9.30;4.83;;;;;;;;;;5058491;28;20475;-65
2022/10/30 10:15:38;;;;;;;8.43;4.87;;;;;;;;;;5057838;28;20457;-67
2022/10/30 10:18:06;;;;;;;6.37;4.80;;;;;;;;;;5043833;28;20901;-67
2022/10/30 10:20:35;;;;;;;6.40;4.30;;;;;;;;;;5048970;28;20447;-64
2022/10/30 10:25:34;;;;;;;11.50;4.60;;;;;;;;;;5096671;28;20849;-70
2022/10/30 10:28:07;;;;;;;6.83;4.60;;;;;;;;;;5087373;28;20950;-70
2022/10/30 10:30:39;;;;;;;7.00;4.40;;;;;;;;;;5093959;28;20477;-68
2022/10/30 10:33:23;;;;;;;8.13;4.87;;;;;;;;;;5101266;28;20437;-70
2022/10/30 10:35:54;;;;;;;10.80;4.20;;;;;;;;;;5079765;28;20984;-69
2022/10/30 10:38:27;;;;;;;8.60;4.50;;;;;;;;;;5079337;28;20791;-69
2022/10/30 10:41:01;;;;;;;8.80;4.90;;;;;;;;;;5075896;28;20428;-70
2022/10/30 10:43:36;;;;;;;7.20;4.50;;;;;;;;;;5075195;28;20491;-70
2022/10/30 10:46:17;;;;;;;8.50;4.87;;;;;;;;;;5081821;28;20910;-70
2022/10/30 10:48:52;;;;;;;10.10;4.23;;;;;;;;;;5091175;28;20960;-70
2022/10/30 10:51:22;;;;;;;8.07;4.93;;;;;;;;;;5094979;28;20473;-70
2022/10/30 10:53:53;;;;;;;8.20;4.10;;;;;;;;;;5095916;28;20473;-70
2022/10/30 10:56:25;;;;;;;10.63;6.00;;;;;;;;;;5099010;28;20447;-69
2022/10/30 10:58:56;;;;;;;10.53;4.93;;;;;;;;;;5095094;28;20430;-69
2022/10/30 11:01:24;;;;;;;6.90;4.67;;;;;;;;;;5096496;28;20434;-70
2022/10/30 11:03:55;;;;;;;8.80;4.80;;;;;;;;;;5095201;28;20570;-70
2022/10/30 11:06:25;;;;;;;8.33;4.20;;;;;;;;;;5095045;28;20423;-69
2022/10/30 11:08:53;;;;;;;5.43;4.37;;;;;;;;;;5095181;28;20469;-70
2022/10/30 11:11:22;;;;;;;8.30;5.00;;;;;;;;;;5095024;28;20485;-70
2022/10/30 11:13:50;;;;;;;11.73;5.20;;;;;;;;;;5093610;28;20974;-69
2022/10/30 11:16:22;;;;;;;8.83;4.63;;;;;;;;;;5095249;28;20940;-69
2022/10/30 11:18:52;;;;;;;10.17;4.40;;;;;;;;;;5095496;28;20787;-69
2022/10/30 11:21:20;;;;;;;7.00;4.47;;;;;;;;;;5095735;28;20426;-68
2022/10/30 11:23:48;;;;;;;9.40;4.90;;;;;;;;;;5095769;28;20484;-69
2022/10/30 11:26:28;;;;;;;7.97;4.73;;;;;;;;;;5094723;28;20950;-69
2022/10/30 11:28:56;;;;;;;7.93;4.60;;;;;;;;;;5096740;28;20449;-69
2022/10/30 11:31:26;;;;;;;8.60;5.37;;;;;;;;;;5097184;28;20483;-69
2022/10/30 11:33:53;;;;;;;6.97;4.30;;;;;;;;;;5096850;28;20466;-71
2022/10/30 11:36:23;;;;;;;7.90;4.83;;;;;;;;;;5094932;28;20934;-69
2022/10/30 11:38:50;;;;;;;10.13;4.63;;;;;;;;;;5094205;28;20430;-69
2022/10/30 11:41:18;;;;;;;7.17;4.40;;;;;;;;;;5094331;28;20446;-71
2022/10/30 11:43:48;;;;;;;10.23;5.10;;;;;;;;;;5095105;28;20458;-70
2022/10/30 11:46:18;;;;;;;10.10;4.60;;;;;;;;;;5097680;28;20439;-69
2022/10/30 11:48:45;;;;;;;8.60;4.90;;;;;;;;;;5095573;28;20438;-69
2022/10/30 11:51:13;;;;;;;14.03;4.57;;;;;;;;;;5093827;28;20510;-70
2022/10/30 11:53:41;;;;;;;11.73;4.80;;;;;;;;;;5093816;28;20466;-71
2022/10/30 11:56:13;;;;;;;12.47;5.27;;;;;;;;;;5093947;28;20438;-71
2022/10/30 11:58:44;;;;;;;8.70;4.93;;;;;;;;;;5094823;28;20434;-71
2022/10/30 12:01:15;;;;;;;9.30;5.10;;;;;;;;;;5094331;28;20439;-71
2022/10/30 12:03:42;;;;;;;8.23;5.03;;;;;;;;;;5094196;28;20459;-71
2022/10/30 12:06:11;;;;;;;10.83;4.63;;;;;;;;;;5093921;28;20447;-70
2022/10/30 12:08:38;;;;;;;12.37;4.40;;;;;;;;;;5093756;28;20442;-70
2022/10/30 12:11:06;;;;;;;9.07;4.80;;;;;;;;;;5093695;28;20478;-69
2022/10/30 12:13:48;;;;;;;7.47;4.17;;;;;;;;;;5098316;28;20466;-64
2022/10/30 12:16:18;;;;;;;10.37;4.30;;;;;;;;;;5096285;28;20532;-69
2022/10/30 12:18:56;;;;;;;7.43;4.90;;;;;;;;;;5100787;28;20445;-68
2022/10/30 12:21:24;;;;;;;10.17;5.50;;;;;;;;;;5098299;28;20480;-71
2022/10/30 12:23:52;;;;;;;13.13;4.50;;;;;;;;;;5094469;28;20873;-71
2022/10/30 12:26:19;;;;;;;6.90;4.57;;;;;;;;;;5094758;28;20438;-70
2022/10/30 12:28:52;;;;;;;7.93;4.50;;;;;;;;;;5094359;28;20443;-70
2022/10/30 12:31:23;;;;;;;10.43;4.90;;;;;;;;;;5096597;28;20466;-70
2022/10/30 12:33:53;;;;;;;7.53;4.40;;;;;;;;;;5099126;28;20474;-70
2022/10/30 12:36:22;;;;;;;12.33;5.47;;;;;;;;;;5099411;28;20466;-70
2022/10/30 12:38:50;;;;;;;11.93;4.90;;;;;;;;;;5099651;28;20442;-70
2022/10/30 12:41:23;;;;;;;8.63;4.37;;;;;;;;;;5099103;28;20478;-70
2022/10/30 12:43:55;;;;;;;9.17;4.40;;;;;;;;;;5098505;28;20462;-71
2022/10/30 12:46:29;;;;;;;6.80;4.40;;;;;;;;;;5097683;28;20432;-71
2022/10/30 12:48:58;;;;;;;8.33;4.90;;;;;;;;;;5087822;28;20802;-69
2022/10/30 12:51:30;;;;;;;7.67;4.07;;;;;;;;;;5099180;28;20482;-69
2022/10/30 12:54:00;;;;;;;8.50;4.40;;;;;;;;;;5085414;28;20459;-71
2022/10/30 12:56:29;;;;;;;6.90;4.00;;;;;;;;;;5078559;28;20442;-70
2022/10/30 12:58:59;;;;;;;6.33;4.50;;;;;;;;;;5077800;28;20458;-71
2022/10/30 13:01:32;;;;;;;8.30;4.17;;;;;;;;;;5077264;28;20542;-70
2022/10/30 13:04:06;;;;;;;8.90;5.03;;;;;;;;;;5078017;28;20482;-67
2022/10/30 13:06:38;;;;;;;12.43;5.63;;;;;;;;;;5077689;28;20805;-70
2022/10/30 13:09:10;;;;;;;5.87;4.20;;;;;;;;;;5078144;28;20432;-70
2022/10/30 13:11:40;;;;;;;15.10;6.80;;;;;;;;;;5077414;28;20463;-71
2022/10/30 13:14:12;;;;;;;10.70;4.70;;;;;;;;;;5077020;28;20463;-71
2022/10/30 13:16:40;;;;;;;7.87;4.20;;;;;;;;;;5076241;28;20444;-71
2022/10/30 13:19:10;;;;;;;6.83;5.17;;;;;;;;;;5076782;28;20440;-70
2022/10/30 13:21:39;;;;;;;6.23;4.00;;;;;;;;;;5076235;28;20932;-70
2022/10/30 13:24:10;;;;;;;10.63;4.80;;;;;;;;;;5076802;28;21003;-71
2022/10/30 13:26:44;;;;;;;9.13;5.03;;;;;;;;;;5077005;28;20816;-71
2022/10/30 13:29:16;;;;;;;7.70;4.63;;;;;;;;;;5097258;28;20543;-67
2022/10/30 13:31:49;;;;;;;8.70;4.50;;;;;;;;;;5097611;28;20462;-67
2022/10/30 13:34:29;;;;;;;36.03;23.30;;;;;;;;;;5101146;28;20470;-66
2022/10/30 13:36:59;;;;;;;44.13;30.40;;;;;;;;;;5079017;28;20424;-67
2022/10/30 13:39:30;;;;;;;27.17;20.33;;;;;;;;;;5080736;28;20444;-67
2022/10/30 13:42:03;;;;;;;11.47;5.33;;;;;;;;;;5080323;28;20654;-69
2022/10/30 13:44:36;;;;;;;8.90;5.07;;;;;;;;;;5079055;28;20478;-66
2022/10/30 13:47:13;;;;;;;8.50;5.30;;;;;;;;;;5079355;28;20910;-66
2022/10/30 13:49:50;;;;;;;8.43;5.43;;;;;;;;;;5082530;28;20431;-65
2022/10/30 13:52:18;;;;;;;13.50;6.80;;;;;;;;;;5081098;28;20464;-66
2022/10/30 13:54:46;;;;;;;8.13;5.60;;;;;;;;;;5077465;28;20463;-67
2022/10/30 13:57:17;;;;;;;12.80;5.90;;;;;;;;;;5093083;28;20446;-68
2022/10/30 13:59:57;;;;;;;8.37;5.43;;;;;;;;;;5079401;28;20481;-68
2022/10/30 14:02:40;;;;;;;15.20;5.50;;;;;;;;;;5085695;28;20509;-68
2022/10/30 14:05:14;;;;;;;15.03;5.60;;;;;;;;;;5088637;28;20472;-67
2022/10/30 14:07:46;;;;;;;10.20;5.93;;;;;;;;;;5097492;28;20431;-68
2022/10/30 14:10:17;;;;;;;11.23;5.47;;;;;;;;;;5086177;28;20440;-70
2022/10/30 14:12:50;;;;;;;13.07;5.97;;;;;;;;;;5090444;28;20524;-69
2022/10/30 14:15:28;;;;;;;10.00;5.57;;;;;;;;;;5081917;28;20466;-68
2022/10/30 14:18:13;;;;;;;11.90;5.87;;;;;;;;;;5076355;28;20452;-67